This is the latest recevied weather packets stored in our database for station/object OM1PU-6. If no packets are shown the sender has not sent any weather packets the latest 10 day(s).
| Time | Temp. | Humidity | Pressure | Rain* | Wind** | Luminosity | Snow |
|---|---|---|---|---|---|---|---|
| 1777654094 | 20.56° C | 43% | 1036.1 hPa | 0 mm | - | - | - |
| 1777653195 | 20° C | 45% | 1036.1 hPa | 0 mm | - | - | - |
| 1777652294 | 19.44° C | 44% | 1036.1 hPa | 0 mm | - | - | - |
| 1777651394 | 20° C | 43% | 1036.3 hPa | 0 mm | - | - | - |
| 1777650495 | 20° C | 42% | 1036.2 hPa | 0 mm | - | - | - |
| 1777649595 | 21.67° C | 40% | 1036.6 hPa | 0 mm | - | - | - |
| 1777648695 | 22.78° C | 37% | 1036.6 hPa | 0 mm | - | - | - |
| 1777647795 | 23.33° C | 37% | 1036.9 hPa | 0 mm | - | - | - |
| 1777646894 | 21.11° C | 40% | 1036.7 hPa | 0 mm | - | - | - |
| 1777645995 | 20.56° C | 41% | 1037 hPa | 0 mm | - | - | - |
| 1777645095 | 20° C | 41% | 1037 hPa | 0 mm | - | - | - |
| 1777644195 | 21.11° C | 40% | 1036.9 hPa | 0 mm | - | - | - |
| 1777643294 | 21.67° C | 38% | 1037.2 hPa | 0 mm | - | - | - |
| 1777642394 | 21.67° C | 37% | 1037.2 hPa | 0 mm | - | - | - |
| 1777641495 | 21.67° C | 37% | 1037.4 hPa | 0 mm | - | - | - |
| 1777640595 | 20° C | 41% | 1037.5 hPa | 0 mm | - | - | - |
| 1777639695 | 20.56° C | 38% | 1038 hPa | 0 mm | - | - | - |
| 1777638795 | 19.44° C | 42% | 1037.9 hPa | 0 mm | - | - | - |
| 1777637895 | 21.11° C | 37% | 1038.2 hPa | 0 mm | - | - | - |
| 1777636994 | 21.11° C | 37% | 1038.6 hPa | 0 mm | - | - | - |
| 1777636095 | 21.11° C | 37% | 1038.6 hPa | 0 mm | - | - | - |
| 1777635194 | 19.44° C | 41% | 1038.7 hPa | 0 mm | - | - | - |
| 1777634295 | 18.33° C | 42% | 1039.1 hPa | 0 mm | - | - | - |
| 1777633394 | 19.44° C | 41% | 1038.9 hPa | 0 mm | - | - | - |
| 1777632494 | 20° C | 39% | 1039.1 hPa | 0 mm | - | - | - |
* Rain latest 24 hours (hover to see other rain measurements)
** Current wind speed in m/s (hover to see current wind gust speed)